Time;durP1;ratioP1;P1;durP2;ratioP2;P2;SDS_P1;SDS_P2;PMS_P1;PMS_P2;Temp;Humidity;BMP_temperature;BMP_pressure;BME280_temperature;BME280_humidity;BME280_pressure;Samples;Min_cycle;Max_cycle;Signal;HPM_P1;HPM_P2
2022/04/09 00:00:38;;;;;;;1.13;1.02;;;11.30;99.90;;;;;;5072618;28;20284;-89
2022/04/09 00:03:06;;;;;;;2.00;1.02;;;11.20;99.90;;;;;;5072555;28;20258;-90
2022/04/09 00:05:35;;;;;;;1.48;1.38;;;11.20;99.90;;;;;;5072585;28;20204;-89
2022/04/09 00:08:04;;;;;;;1.05;1.05;;;11.20;99.90;;;;;;5072460;28;20236;-90
2022/04/09 00:10:33;;;;;;;0.80;0.80;;;11.20;99.90;;;;;;5072757;28;20289;-89
2022/04/09 00:13:01;;;;;;;1.00;1.00;;;11.20;99.90;;;;;;5072744;28;20275;-90
2022/04/09 00:15:29;;;;;;;2.13;1.20;;;11.20;99.90;;;;;;5072863;28;20204;-90
2022/04/09 00:17:59;;;;;;;1.10;0.98;;;11.20;99.90;;;;;;5072663;28;20321;-89
2022/04/09 00:20:28;;;;;;;2.30;1.70;;;11.20;99.90;;;;;;5072473;28;20205;-89
2022/04/09 00:22:56;;;;;;;1.20;1.13;;;11.20;99.90;;;;;;5072776;28;20313;-90
2022/04/09 00:25:25;;;;;;;1.48;1.38;;;11.20;99.90;;;;;;5072837;28;20233;-90
2022/04/09 00:27:53;;;;;;;1.77;1.45;;;11.10;99.90;;;;;;5072575;28;20208;-90
2022/04/09 00:30:21;;;;;;;1.35;1.27;;;11.10;99.90;;;;;;5072466;28;20292;-90
2022/04/09 00:32:50;;;;;;;1.50;1.40;;;11.10;99.90;;;;;;5073266;28;20224;-89
2022/04/09 00:35:20;;;;;;;2.08;1.48;;;11.10;99.90;;;;;;5074231;28;20258;-90
2022/04/09 00:37:49;;;;;;;2.22;2.03;;;11.10;99.90;;;;;;5074964;28;20212;-90
2022/04/09 00:40:19;;;;;;;1.52;1.42;;;11.10;99.90;;;;;;5072673;28;20233;-90
2022/04/09 00:42:48;;;;;;;1.25;1.20;;;11.00;99.90;;;;;;5072319;28;20221;-89
2022/04/09 00:45:16;;;;;;;1.85;1.75;;;11.00;99.90;;;;;;5072492;28;20217;-89
2022/04/09 00:47:45;;;;;;;11.80;1.63;;;11.00;99.90;;;;;;5072264;28;20205;-89
2022/04/09 00:50:14;;;;;;;1.70;1.60;;;10.90;99.90;;;;;;5072399;28;20201;-90
2022/04/09 00:52:49;;;;;;;1.40;1.30;;;10.90;99.90;;;;;;5071898;28;20288;-90
2022/04/09 00:56:12;;;;;;;1.48;1.38;;;11.00;99.90;;;;;;5072384;28;20277;-89
2022/04/09 00:58:16;;;;;;;6.55;1.13;;;11.00;99.90;;;;;;5073002;28;20217;-90
2022/04/09 01:00:44;;;;;;;0.90;0.90;;;11.10;99.90;;;;;;5076086;28;20287;-89
2022/04/09 01:03:16;;;;;;;1.00;1.00;;;11.10;99.90;;;;;;5076759;28;20235;-89
2022/04/09 01:05:45;;;;;;;1.35;0.85;;;11.10;99.90;;;;;;5076525;28;20204;-89
2022/04/09 01:08:16;;;;;;;1.08;0.98;;;11.20;99.90;;;;;;5076156;28;20320;-89
2022/04/09 01:10:47;;;;;;;0.80;0.80;;;11.20;99.90;;;;;;5076260;28;20205;-90
2022/04/09 01:13:16;;;;;;;0.90;0.90;;;11.30;99.90;;;;;;5076513;28;20225;-90
2022/04/09 01:15:44;;;;;;;1.98;1.10;;;11.30;99.90;;;;;;5076473;28;20276;-89
2022/04/09 01:18:15;;;;;;;0.77;0.77;;;11.40;99.90;;;;;;5076330;28;20258;-90
2022/04/09 01:20:43;;;;;;;0.50;0.50;;;11.40;99.90;;;;;;5075831;28;20205;-89
2022/04/09 01:23:13;;;;;;;1.00;0.90;;;11.40;99.90;;;;;;5075814;28;20312;-89
2022/04/09 01:25:42;;;;;;;7.20;0.90;;;11.40;99.90;;;;;;5076247;28;20292;-89
2022/04/09 01:28:10;;;;;;;4.03;0.85;;;11.40;99.90;;;;;;5075876;28;20202;-89
2022/04/09 01:30:40;;;;;;;0.77;0.77;;;11.30;99.90;;;;;;5076036;28;20205;-89
2022/04/09 01:33:08;;;;;;;0.68;0.68;;;11.30;99.90;;;;;;5075993;28;20329;-89
2022/04/09 01:35:36;;;;;;;0.90;0.90;;;11.30;99.90;;;;;;5078044;28;20239;-89
2022/04/09 01:38:05;;;;;;;0.70;0.70;;;11.20;99.90;;;;;;5079114;28;20238;-89
2022/04/09 01:40:34;;;;;;;1.02;1.02;;;11.30;99.90;;;;;;5077586;28;20218;-89
2022/04/09 01:43:03;;;;;;;0.90;0.90;;;11.20;99.90;;;;;;5079532;28;20273;-89
2022/04/09 01:45:31;;;;;;;1.13;0.88;;;11.20;99.90;;;;;;5075750;28;20300;-90
2022/04/09 01:48:00;;;;;;;0.90;0.90;;;11.20;99.90;;;;;;5075526;28;20228;-89
2022/04/09 01:50:29;;;;;;;0.80;0.80;;;11.20;99.90;;;;;;5075815;28;20296;-90
2022/04/09 01:52:58;;;;;;;0.70;0.70;;;11.10;99.90;;;;;;5075989;28;20232;-89
2022/04/09 01:55:26;;;;;;;1.42;1.30;;;11.10;99.90;;;;;;5081834;28;20213;-89
2022/04/09 01:57:56;;;;;;;6.40;1.10;;;11.10;99.90;;;;;;5082371;28;20201;-89
2022/04/09 02:00:24;;;;;;;0.85;0.85;;;11.20;99.90;;;;;;5084737;28;20223;-88
2022/04/09 02:02:53;;;;;;;0.90;0.90;;;11.10;99.90;;;;;;5081244;28;20225;-89
2022/04/09 02:05:23;;;;;;;0.82;0.82;;;11.10;99.90;;;;;;5079621;28;20247;-90
2022/04/09 02:07:51;;;;;;;1.23;1.13;;;11.10;99.90;;;;;;5078448;28;20213;-89
2022/04/09 02:10:20;;;;;;;0.95;0.95;;;11.10;99.90;;;;;;5077043;28;20272;-90
2022/04/09 02:12:48;;;;;;;0.73;0.73;;;11.00;99.90;;;;;;5079036;28;20235;-90
2022/04/09 02:15:18;;;;;;;0.90;0.90;;;11.00;99.90;;;;;;5085181;28;20213;-89
2022/04/09 02:17:47;;;;;;;1.65;1.00;;;10.90;99.90;;;;;;5081680;28;20216;-88
2022/04/09 02:20:16;;;;;;;1.42;1.13;;;10.90;99.90;;;;;;5077036;28;20236;-89
2022/04/09 02:22:46;;;;;;;1.08;1.00;;;10.90;99.90;;;;;;5076897;28;20220;-89
2022/04/09 02:25:16;;;;;;;0.80;0.80;;;10.90;99.90;;;;;;5075769;28;20232;-89
2022/04/09 02:27:44;;;;;;;1.95;1.05;;;10.90;99.90;;;;;;5074669;28;20225;-89
2022/04/09 02:30:13;;;;;;;0.95;0.95;;;10.90;99.90;;;;;;5074792;28;20295;-89
2022/04/09 02:32:48;;;;;;;0.90;0.90;;;10.80;99.90;;;;;;5074743;28;20229;-89
2022/04/09 02:35:18;;;;;;;2.08;1.55;;;10.80;99.90;;;;;;5075148;28;20208;-89
2022/04/09 02:37:46;;;;;;;0.93;0.90;;;10.70;99.90;;;;;;5074731;28;20233;-89
2022/04/09 02:40:15;;;;;;;0.80;0.80;;;10.70;99.90;;;;;;5074311;28;20236;-89
2022/04/09 02:42:44;;;;;;;1.30;1.15;;;10.60;99.90;;;;;;5074265;28;20217;-89
2022/04/09 02:45:13;;;;;;;1.00;1.00;;;10.70;99.90;;;;;;5074746;28;20292;-89
2022/04/09 02:47:42;;;;;;;0.93;0.93;;;10.60;99.90;;;;;;5074584;28;20246;-89
2022/04/09 02:50:12;;;;;;;0.73;0.70;;;10.60;99.90;;;;;;5074425;28;20261;-89
2022/04/09 02:52:44;;;;;;;1.02;1.02;;;10.70;99.90;;;;;;5074425;28;20325;-89
2022/04/09 02:55:12;;;;;;;1.27;1.17;;;10.70;99.90;;;;;;5074073;28;20236;-89
2022/04/09 02:57:41;;;;;;;8.02;1.40;;;10.70;99.90;;;;;;5073992;28;20273;-89
2022/04/09 03:00:12;;;;;;;1.15;1.08;;;10.70;99.90;;;;;;5074293;28;20209;-89
2022/04/09 03:02:41;;;;;;;0.80;0.80;;;10.60;99.90;;;;;;5074401;28;20224;-88
2022/04/09 03:05:13;;;;;;;1.33;1.13;;;10.60;99.90;;;;;;5074109;28;20216;-89
2022/04/09 03:07:41;;;;;;;0.90;0.90;;;10.60;99.90;;;;;;5074452;28;20229;-89
2022/04/09 03:10:11;;;;;;;1.00;1.00;;;10.50;99.90;;;;;;5073758;28;20287;-88
2022/04/09 03:12:44;;;;;;;1.00;1.00;;;10.50;99.90;;;;;;5073541;28;20259;-89
2022/04/09 03:15:13;;;;;;;1.13;1.10;;;10.50;99.90;;;;;;5074185;28;20212;-89
2022/04/09 03:17:41;;;;;;;0.80;0.80;;;10.50;99.90;;;;;;5073681;28;20312;-89
2022/04/09 03:20:12;;;;;;;1.17;1.08;;;10.40;99.90;;;;;;5073666;28;20208;-89
2022/04/09 03:22:45;;;;;;;4.22;1.35;;;10.40;99.90;;;;;;5072852;28;20217;-89
2022/04/09 03:25:14;;;;;;;1.20;1.10;;;10.40;99.90;;;;;;5073745;28;20208;-89
2022/04/09 03:27:43;;;;;;;1.17;1.10;;;10.40;99.90;;;;;;5073669;28;20258;-89
2022/04/09 03:30:12;;;;;;;1.20;1.20;;;10.40;99.90;;;;;;5073205;28;20197;-89
2022/04/09 03:32:42;;;;;;;0.95;0.95;;;10.40;99.90;;;;;;5073182;28;20221;-89
2022/04/09 03:35:13;;;;;;;1.33;1.23;;;10.40;99.90;;;;;;5073494;28;20205;-89
2022/04/09 03:37:42;;;;;;;1.13;1.10;;;10.40;99.90;;;;;;5073165;28;20209;-89
2022/04/09 03:40:12;;;;;;;1.67;1.58;;;10.40;99.90;;;;;;5073620;28;20266;-89
2022/04/09 03:42:41;;;;;;;1.05;1.00;;;10.40;99.90;;;;;;5074781;28;20221;-89
2022/04/09 03:45:10;;;;;;;1.85;1.50;;;10.40;99.90;;;;;;5074948;28;20232;-89
2022/04/09 03:47:39;;;;;;;0.90;0.90;;;10.40;99.90;;;;;;5074101;28;20205;-89
2022/04/09 03:50:08;;;;;;;1.38;1.27;;;10.40;99.90;;;;;;5072762;28;20200;-89
2022/04/09 03:52:38;;;;;;;1.33;1.23;;;10.50;99.90;;;;;;5072940;28;20245;-89
2022/04/09 03:55:08;;;;;;;2.83;1.55;;;10.40;99.90;;;;;;5073032;28;20205;-89
2022/04/09 03:57:37;;;;;;;1.73;1.63;;;10.40;99.90;;;;;;5073093;28;20209;-89
2022/04/09 04:00:08;;;;;;;1.00;1.00;;;10.50;99.90;;;;;;5073039;28;20243;-89
2022/04/09 04:02:37;;;;;;;1.02;1.02;;;10.50;99.90;;;;;;5073005;28;20221;-89
2022/04/09 04:05:06;;;;;;;1.42;1.35;;;10.60;99.90;;;;;;5073082;28;20209;-90
2022/04/09 04:07:35;;;;;;;1.30;1.20;;;10.60;99.90;;;;;;5072900;28;20201;-89
2022/04/09 04:10:09;;;;;;;1.20;1.20;;;10.60;99.90;;;;;;5072848;28;20213;-89
2022/04/09 04:12:37;;;;;;;0.80;0.80;;;10.60;99.90;;;;;;5072333;28;20263;-90
2022/04/09 04:15:07;;;;;;;1.30;1.20;;;10.60;99.90;;;;;;5073051;28;20207;-90
2022/04/09 04:17:40;;;;;;;2.88;1.30;;;10.50;99.90;;;;;;5072997;28;20212;-91
2022/04/09 04:20:24;;;;;;;1.60;1.50;;;10.40;99.90;;;;;;5073196;28;20217;-92
2022/04/09 04:23:17;;;;;;;1.23;1.13;;;10.40;99.90;;;;;;5036444;28;20237;-91
2022/04/09 04:25:52;;;;;;;0.50;0.50;;;10.20;99.90;;;;;;5072691;28;20209;-90
2022/04/09 04:28:25;;;;;;;1.20;1.10;;;10.20;99.90;;;;;;5072464;28;20204;-91
2022/04/09 04:30:54;;;;;;;0.73;0.73;;;10.20;99.90;;;;;;5072840;28;20229;-91
2022/04/09 04:33:25;;;;;;;0.80;0.80;;;10.20;99.90;;;;;;5071765;28;20228;-90
2022/04/09 04:36:04;;;;;;;0.80;0.80;;;10.20;99.90;;;;;;5073032;28;20209;-91
2022/04/09 04:38:41;;;;;;;0.85;0.85;;;10.20;99.90;;;;;;5072960;28;20208;-90
2022/04/09 04:41:12;;;;;;;0.80;0.80;;;10.20;99.90;;;;;;5072216;28;20216;-90
2022/04/09 04:43:41;;;;;;;1.27;1.17;;;10.20;99.90;;;;;;5072453;28;20221;-92
2022/04/09 04:46:14;;;;;;;0.88;0.88;;;10.20;99.90;;;;;;5073011;28;20201;-92
2022/04/09 04:48:45;;;;;;;0.98;0.98;;;10.20;99.90;;;;;;5072673;28;20209;-90
2022/04/09 04:51:18;;;;;;;3.25;1.08;;;10.30;99.90;;;;;;5072338;28;20193;-90
2022/04/09 04:53:48;;;;;;;0.80;0.80;;;10.30;99.90;;;;;;5072499;28;20249;-90
2022/04/09 04:56:19;;;;;;;1.17;1.17;;;10.30;99.90;;;;;;5072577;28;20205;-90
2022/04/09 04:58:48;;;;;;;0.68;0.68;;;10.40;99.90;;;;;;5072465;28;20208;-89
2022/04/09 05:01:17;;;;;;;0.70;0.70;;;10.30;99.90;;;;;;5072222;28;20209;-90
2022/04/09 05:03:47;;;;;;;0.60;0.60;;;10.40;99.90;;;;;;5072396;28;20251;-91
2022/04/09 05:06:15;;;;;;;0.70;0.70;;;10.40;99.90;;;;;;5072289;28;20209;-89
2022/04/09 05:08:44;;;;;;;15.68;0.70;;;10.50;99.90;;;;;;5072507;28;20205;-90
2022/04/09 05:11:12;;;;;;;0.57;0.52;;;10.50;99.90;;;;;;5072190;28;20201;-89
2022/04/09 05:13:42;;;;;;;0.70;0.70;;;10.60;99.90;;;;;;5072085;28;20252;-89
2022/04/09 05:16:11;;;;;;;0.70;0.63;;;10.70;99.90;;;;;;5074271;28;20204;-90
2022/04/09 05:18:39;;;;;;;0.63;0.63;;;10.90;99.90;;;;;;5074486;28;20201;-89
2022/04/09 05:21:08;;;;;;;0.55;0.55;;;10.90;99.90;;;;;;5072834;28;20221;-89
2022/04/09 05:23:36;;;;;;;0.75;0.75;;;11.00;99.90;;;;;;5072347;28;20366;-90
2022/04/09 05:26:05;;;;;;;0.43;0.43;;;11.20;99.90;;;;;;5072249;28;20201;-90
2022/04/09 05:28:33;;;;;;;0.50;0.50;;;11.20;99.90;;;;;;5072250;28;20197;-89
2022/04/09 05:31:04;;;;;;;0.95;0.70;;;11.30;99.90;;;;;;5071806;28;20301;-89
2022/04/09 05:33:35;;;;;;;1.52;1.08;;;11.30;99.90;;;;;;5075732;28;20228;-90
2022/04/09 05:36:05;;;;;;;1.08;0.70;;;11.30;99.90;;;;;;5075702;28;20201;-89
2022/04/09 05:38:34;;;;;;;0.65;0.65;;;11.40;99.90;;;;;;5075087;28;20197;-88
2022/04/09 05:41:02;;;;;;;0.40;0.40;;;11.40;99.90;;;;;;5073464;28;20255;-88
2022/04/09 05:43:30;;;;;;;0.68;0.68;;;11.40;99.90;;;;;;5072199;28;20221;-87
2022/04/09 05:45:59;;;;;;;0.45;0.45;;;11.50;99.90;;;;;;5075799;28;20276;-88
2022/04/09 05:48:29;;;;;;;0.28;0.28;;;11.50;99.90;;;;;;5075660;28;20292;-88
2022/04/09 05:50:58;;;;;;;0.52;0.52;;;11.50;99.90;;;;;;5076240;28;20285;-89
2022/04/09 05:53:26;;;;;;;0.40;0.40;;;11.50;99.90;;;;;;5082663;28;20245;-88
2022/04/09 05:55:54;;;;;;;0.63;0.63;;;11.30;99.90;;;;;;5087435;28;20235;-88
2022/04/09 05:58:23;;;;;;;1.02;1.02;;;11.10;99.90;;;;;;5087631;28;20210;-88
2022/04/09 06:00:51;;;;;;;0.75;0.70;;;10.90;99.90;;;;;;5076285;28;20217;-89
2022/04/09 06:03:22;;;;;;;0.50;0.50;;;10.50;99.90;;;;;;5075698;28;20233;-88
2022/04/09 06:05:53;;;;;;;0.63;0.57;;;10.30;99.90;;;;;;5076692;28;20215;-88
2022/04/09 06:08:21;;;;;;;0.52;0.52;;;9.90;99.90;;;;;;5079255;28;20235;-88
2022/04/09 06:10:49;;;;;;;0.68;0.50;;;9.60;99.90;;;;;;5082237;28;20209;-89
2022/04/09 06:13:17;;;;;;;0.20;0.20;;;9.20;99.90;;;;;;5081749;28;20245;-90
2022/04/09 06:15:46;;;;;;;0.35;0.35;;;8.90;99.90;;;;;;5075821;28;20197;-90
2022/04/09 06:18:14;;;;;;;0.30;0.30;;;8.70;99.90;;;;;;5075127;28;20217;-90
2022/04/09 06:20:43;;;;;;;2.92;0.35;;;8.50;99.90;;;;;;5075107;28;20256;-89
2022/04/09 06:23:13;;;;;;;0.28;0.28;;;8.40;99.90;;;;;;5075772;28;20255;-89
2022/04/09 06:25:42;;;;;;;3.03;0.50;;;8.20;99.90;;;;;;5075996;28;20224;-90
2022/04/09 06:28:12;;;;;;;0.40;0.40;;;8.00;99.90;;;;;;5075256;28;20239;-90
2022/04/09 06:30:41;;;;;;;0.40;0.40;;;7.80;99.90;;;;;;5075219;28;20206;-89
2022/04/09 06:33:10;;;;;;;0.55;0.55;;;7.70;99.90;;;;;;5074988;28;20244;-89
2022/04/09 06:35:38;;;;;;;0.32;0.32;;;7.50;99.90;;;;;;5074516;28;20240;-90
2022/04/09 06:38:07;;;;;;;0.90;0.60;;;7.40;99.90;;;;;;5074656;28;20236;-89
2022/04/09 06:40:37;;;;;;;0.68;0.68;;;7.40;99.90;;;;;;5074724;28;20280;-90
2022/04/09 06:43:06;;;;;;;0.70;0.70;;;7.30;99.90;;;;;;5074448;28;20249;-89
2022/04/09 06:45:34;;;;;;;0.93;0.93;;;7.30;99.90;;;;;;5075027;28;20201;-89
2022/04/09 06:48:03;;;;;;;0.82;0.82;;;7.00;99.90;;;;;;5076352;28;20228;-89
2022/04/09 06:50:32;;;;;;;0.90;0.90;;;6.90;99.90;;;;;;5077073;28;20243;-89
2022/04/09 06:53:00;;;;;;;1.50;1.40;;;7.00;99.90;;;;;;5076619;28;20225;-89
2022/04/09 06:55:29;;;;;;;1.23;1.13;;;6.90;99.90;;;;;;5073508;28;20252;-89
2022/04/09 06:58:02;;;;;;;1.67;1.58;;;6.80;99.90;;;;;;5074530;28;20232;-89
2022/04/09 07:00:37;;;;;;;1.27;1.27;;;6.80;99.90;;;;;;5073313;28;20207;-88
2022/04/09 07:03:06;;;;;;;1.98;1.88;;;6.70;99.90;;;;;;5074452;28;20251;-90
2022/04/09 07:05:34;;;;;;;1.98;1.88;;;6.70;99.90;;;;;;5074228;28;20296;-91
2022/04/09 07:08:03;;;;;;;2.30;2.15;;;6.70;99.90;;;;;;5074162;28;20287;-91
2022/04/09 07:10:32;;;;;;;3.85;3.55;;;6.70;99.90;;;;;;5074006;28;20201;-91
2022/04/09 07:13:02;;;;;;;2.22;2.13;;;6.80;99.90;;;;;;5073949;28;20248;-90
2022/04/09 07:15:30;;;;;;;3.17;2.88;;;6.80;99.90;;;;;;5073947;28;20308;-90
2022/04/09 07:17:59;;;;;;;2.30;2.20;;;6.90;99.90;;;;;;5073902;28;20213;-91
2022/04/09 07:20:27;;;;;;;2.83;2.63;;;6.90;99.90;;;;;;5073625;28;20304;-91
2022/04/09 07:22:55;;;;;;;2.20;2.10;;;6.90;99.90;;;;;;5073902;28;20221;-91
2022/04/09 07:25:24;;;;;;;2.45;2.05;;;6.90;99.90;;;;;;5074035;28;20235;-91
2022/04/09 07:27:52;;;;;;;2.08;1.98;;;6.80;99.90;;;;;;5073740;28;20300;-91
2022/04/09 07:30:24;;;;;;;2.47;2.28;;;6.80;99.90;;;;;;5073320;28;20232;-91
2022/04/09 07:32:54;;;;;;;2.70;2.50;;;6.80;99.90;;;;;;5073457;28;20228;-91
2022/04/09 07:35:23;;;;;;;2.50;2.30;;;6.90;99.90;;;;;;5073554;28;20221;-91
2022/04/09 07:37:54;;;;;;;13.32;2.47;;;6.90;99.90;;;;;;5073559;28;20213;-91
2022/04/09 07:40:24;;;;;;;1.20;1.20;;;6.90;99.90;;;;;;5073376;28;20229;-91
2022/04/09 07:42:53;;;;;;;1.42;1.38;;;7.00;99.90;;;;;;5073857;28;20233;-92
2022/04/09 07:45:23;;;;;;;1.40;1.30;;;7.00;99.90;;;;;;5073776;28;20264;-91
2022/04/09 07:47:54;;;;;;;1.10;1.10;;;7.10;99.90;;;;;;5073400;28;20197;-90
2022/04/09 07:50:23;;;;;;;1.40;1.30;;;7.10;99.90;;;;;;5073163;28;20288;-91
2022/04/09 07:52:52;;;;;;;1.60;1.30;;;7.20;99.90;;;;;;5073122;28;20251;-91
2022/04/09 07:55:21;;;;;;;1.55;1.45;;;7.20;99.90;;;;;;5073295;28;20216;-91
2022/04/09 07:57:51;;;;;;;1.08;1.08;;;7.30;99.90;;;;;;5072983;28;20313;-90
2022/04/09 08:00:23;;;;;;;1.25;1.17;;;7.30;99.90;;;;;;5072986;28;20224;-91
2022/04/09 08:02:51;;;;;;;1.45;1.35;;;7.40;99.90;;;;;;5073434;28;20229;-91
2022/04/09 08:05:20;;;;;;;2.50;1.90;;;7.30;99.90;;;;;;5073173;28;20228;-90
2022/04/09 08:07:48;;;;;;;1.75;1.65;;;7.30;99.90;;;;;;5073126;28;20201;-89
2022/04/09 08:10:18;;;;;;;1.02;1.02;;;7.30;99.90;;;;;;5073146;28;20209;-89
2022/04/09 08:12:48;;;;;;;1.27;1.17;;;7.40;99.90;;;;;;5072492;28;20224;-88
2022/04/09 08:15:18;;;;;;;1.05;1.05;;;7.30;99.90;;;;;;5072519;28;20289;-89
2022/04/09 08:17:54;;;;;;;0.90;0.90;;;7.30;99.90;;;;;;5072921;28;20263;-89
2022/04/09 08:20:41;;;;;;;0.80;0.80;;;7.30;99.90;;;;;;5075572;28;20260;-89
2022/04/09 08:23:10;;;;;;;1.30;1.23;;;7.30;99.90;;;;;;5075458;28;20224;-88
2022/04/09 08:25:38;;;;;;;1.50;1.40;;;7.50;99.90;;;;;;5073151;28;20231;-89
2022/04/09 08:28:07;;;;;;;1.65;1.55;;;7.40;99.90;;;;;;5073179;28;20258;-89
2022/04/09 08:30:36;;;;;;;1.17;1.17;;;7.50;99.90;;;;;;5072728;28;20201;-88
2022/04/09 08:33:07;;;;;;;1.52;1.42;;;7.50;99.90;;;;;;5073199;28;20306;-89
2022/04/09 08:35:35;;;;;;;2.03;1.92;;;7.50;99.90;;;;;;5072640;28;20278;-89
2022/04/09 08:38:04;;;;;;;2.22;2.13;;;7.50;99.90;;;;;;5072505;28;20209;-89
2022/04/09 08:40:37;;;;;;;2.15;2.00;;;7.50;99.90;;;;;;5072330;28;20228;-89
2022/04/09 08:43:05;;;;;;;5.63;2.72;;;7.60;99.90;;;;;;5072439;28;20225;-89
2022/04/09 08:45:37;;;;;;;2.30;2.17;;;7.70;99.90;;;;;;5072672;28;20224;-89
2022/04/09 08:48:08;;;;;;;4.57;2.70;;;7.70;99.90;;;;;;5072516;28;20209;-89
2022/04/09 08:50:37;;;;;;;3.95;2.35;;;7.70;99.90;;;;;;5071927;28;20274;-88
2022/04/09 08:53:08;;;;;;;2.30;2.20;;;7.60;99.90;;;;;;5072387;28;20313;-89
2022/04/09 08:55:37;;;;;;;3.40;3.10;;;7.70;99.90;;;;;;5072674;28;20217;-89
2022/04/09 08:58:06;;;;;;;2.60;2.40;;;7.70;99.90;;;;;;5072284;28;20221;-89
2022/04/09 09:00:34;;;;;;;3.58;3.28;;;8.00;99.90;;;;;;5072260;28;20209;-89
2022/04/09 09:03:05;;;;;;;4.53;3.80;;;8.10;99.90;;;;;;5072307;28;20221;-89
2022/04/09 09:05:38;;;;;;;4.97;4.57;;;8.20;99.90;;;;;;5072571;28;20204;-89
2022/04/09 09:08:08;;;;;;;4.70;4.30;;;8.30;99.90;;;;;;5072683;28;20205;-88
2022/04/09 09:10:38;;;;;;;3.67;3.38;;;8.40;99.90;;;;;;5072030;28;20209;-88
2022/04/09 09:13:07;;;;;;;2.72;2.53;;;8.50;99.90;;;;;;5072566;28;20308;-89
2022/04/09 09:15:47;;;;;;;3.95;3.65;;;8.20;99.90;;;;;;5072410;28;20299;-88
2022/04/09 09:18:21;;;;;;;3.92;3.63;;;8.20;99.90;;;;;;5072305;28;20209;-89
2022/04/09 09:20:52;;;;;;;3.22;3.03;;;8.20;99.90;;;;;;5076023;28;20239;-88
2022/04/09 09:23:21;;;;;;;3.03;2.83;;;8.10;99.90;;;;;;5075974;28;20224;-89
2022/04/09 09:25:50;;;;;;;4.00;3.70;;;8.00;99.90;;;;;;5076373;28;20204;-88
2022/04/09 09:28:26;;;;;;;3.55;3.25;;;7.80;99.90;;;;;;5076399;28;20201;-88
2022/04/09 09:30:55;;;;;;;2.90;2.70;;;7.80;99.90;;;;;;5077774;28;20208;-88
2022/04/09 09:33:24;;;;;;;2.92;2.72;;;7.60;99.90;;;;;;5079659;28;20224;-89
2022/04/09 09:36:14;;;;;;;6.40;3.38;;;7.70;99.90;;;;;;5083565;28;20213;-89
2022/04/09 09:38:43;;;;;;;3.33;3.03;;;7.60;99.90;;;;;;5080294;28;20231;-88
2022/04/09 09:41:24;;;;;;;2.90;2.70;;;7.60;99.90;;;;;;5077850;28;20221;-88
2022/04/09 09:44:02;;;;;;;2.78;2.63;;;7.60;99.90;;;;;;5078267;28;20228;-88
2022/04/09 09:46:31;;;;;;;2.72;2.53;;;7.70;99.90;;;;;;5076448;28;20280;-88
2022/04/09 09:48:59;;;;;;;3.03;2.83;;;7.70;99.90;;;;;;5080760;28;20271;-87
2022/04/09 09:51:29;;;;;;;2.55;2.35;;;7.70;99.90;;;;;;5084199;28;20205;-87
2022/04/09 09:54:05;;;;;;;3.13;2.88;;;7.70;99.90;;;;;;5084719;28;20209;-87
2022/04/09 09:56:36;;;;;;;2.80;2.60;;;7.70;99.90;;;;;;5086730;28;20217;-89
2022/04/09 09:59:08;;;;;;;2.55;2.35;;;7.80;99.90;;;;;;5081668;28;20209;-88
2022/04/09 10:01:38;;;;;;;5.22;3.40;;;8.00;99.90;;;;;;5083330;28;20240;-88
2022/04/09 10:04:08;;;;;;;3.00;2.80;;;7.90;99.90;;;;;;5078918;28;20274;-88
2022/04/09 10:06:38;;;;;;;3.45;3.13;;;7.70;99.90;;;;;;5076487;28;20225;-88
2022/04/09 10:09:07;;;;;;;2.67;2.47;;;7.80;99.90;;;;;;5075782;28;20247;-89
2022/04/09 10:11:39;;;;;;;2.85;2.65;;;7.90;99.90;;;;;;5075257;28;20201;-89
2022/04/09 10:14:10;;;;;;;3.13;2.83;;;7.90;99.90;;;;;;5075590;28;20283;-88
2022/04/09 10:16:40;;;;;;;3.63;3.33;;;8.00;99.90;;;;;;5074565;28;20267;-88
2022/04/09 10:19:10;;;;;;;3.13;2.90;;;8.10;99.90;;;;;;5075349;28;20295;-88
2022/04/09 10:21:44;;;;;;;4.72;3.35;;;8.00;99.90;;;;;;5075229;28;20239;-89
2022/04/09 10:24:18;;;;;;;4.70;3.38;;;8.10;99.90;;;;;;5075278;28;20205;-89
2022/04/09 10:26:47;;;;;;;2.22;2.13;;;8.10;99.90;;;;;;5074892;28;20287;-89
2022/04/09 10:29:15;;;;;;;3.60;3.30;;;8.20;99.90;;;;;;5074910;28;20201;-89
2022/04/09 10:31:51;;;;;;;2.67;2.47;;;8.20;99.90;;;;;;5073620;28;20255;-88
2022/04/09 10:34:20;;;;;;;2.88;2.67;;;8.10;99.90;;;;;;5075060;28;20201;-88
2022/04/09 10:37:06;;;;;;;3.65;3.35;;;8.10;99.90;;;;;;5074786;28;20221;-88
2022/04/09 10:39:45;;;;;;;3.00;2.83;;;8.10;99.90;;;;;;5074456;28;20197;-88
2022/04/09 10:42:48;;;;;;;3.15;2.95;;;8.20;99.90;;;;;;5074400;28;20220;-89
2022/04/09 10:45:18;;;;;;;3.10;2.80;;;8.30;99.90;;;;;;5072154;28;20288;-88
2022/04/09 10:48:10;;;;;;;3.47;3.22;;;8.40;99.90;;;;;;5073882;28;20204;-89
2022/04/09 10:50:59;;;;;;;3.40;3.10;;;8.50;99.90;;;;;;5074107;28;20216;-89
2022/04/09 10:53:31;;;;;;;2.83;2.63;;;8.60;99.90;;;;;;5074373;28;20225;-89
2022/04/09 10:56:24;;;;;;;3.38;2.83;;;8.70;99.90;;;;;;5074256;28;20205;-90
2022/04/09 10:59:09;;;;;;;4.15;3.03;;;8.80;99.90;;;;;;5074493;28;20263;-89
2022/04/09 11:01:51;;;;;;;3.03;2.72;;;8.90;99.90;;;;;;5073984;28;20254;-90
2022/04/09 11:04:39;;;;;;;4.38;3.90;;;8.80;99.90;;;;;;5074068;28;20209;-89
2022/04/09 11:07:09;;;;;;;4.20;3.38;;;8.80;99.90;;;;;;5073782;28;20296;-90
2022/04/09 11:09:58;;;;;;;2.85;2.65;;;8.80;99.90;;;;;;5074111;28;20251;-90
2022/04/09 11:12:28;;;;;;;3.30;3.00;;;8.80;99.90;;;;;;5073754;28;20225;-89
2022/04/09 11:14:58;;;;;;;3.47;3.17;;;8.70;99.90;;;;;;5073726;28;20205;-90
2022/04/09 11:17:29;;;;;;;2.65;2.45;;;8.70;99.90;;;;;;5073719;28;20229;-90
2022/04/09 11:20:02;;;;;;;4.32;2.78;;;8.70;99.90;;;;;;5073950;28;20209;-89
2022/04/09 11:22:35;;;;;;;3.60;3.03;;;8.70;99.90;;;;;;5075560;28;20251;-90
2022/04/09 11:25:07;;;;;;;2.70;2.50;;;8.70;99.90;;;;;;5075689;28;20197;-89
2022/04/09 11:27:36;;;;;;;6.55;2.90;;;8.70;99.90;;;;;;5074269;28;20288;-89
2022/04/09 11:30:07;;;;;;;2.78;2.58;;;8.60;99.90;;;;;;5073624;28;20204;-89
2022/04/09 11:32:36;;;;;;;2.58;2.30;;;8.70;99.90;;;;;;5073992;28;20315;-90
2022/04/09 11:35:08;;;;;;;3.70;3.33;;;8.70;99.90;;;;;;5073979;28;20204;-91
2022/04/09 11:37:41;;;;;;;3.85;2.55;;;8.70;99.90;;;;;;5073278;28;20297;-90
2022/04/09 11:40:12;;;;;;;3.22;2.92;;;8.80;99.90;;;;;;5073988;28;20373;-89
2022/04/09 11:42:45;;;;;;;2.92;2.63;;;8.80;99.90;;;;;;5073232;28;20225;-89
2022/04/09 11:45:18;;;;;;;2.55;2.38;;;8.60;99.90;;;;;;5073569;28;20201;-89
2022/04/09 11:47:48;;;;;;;3.15;2.40;;;8.60;99.90;;;;;;5073106;28;20197;-89
2022/04/09 11:50:17;;;;;;;4.93;2.85;;;8.70;99.90;;;;;;5073222;28;20215;-89
2022/04/09 11:52:45;;;;;;;3.22;2.78;;;8.70;99.90;;;;;;5073523;28;20284;-90
2022/04/09 11:55:16;;;;;;;2.40;2.20;;;8.70;99.90;;;;;;5073580;28;20236;-89
2022/04/09 11:57:52;;;;;;;2.63;2.42;;;8.70;99.90;;;;;;5073588;28;20259;-89
2022/04/09 12:00:23;;;;;;;2.75;2.53;;;8.70;99.90;;;;;;5072714;28;20235;-89
2022/04/09 12:02:52;;;;;;;3.53;2.33;;;8.70;99.90;;;;;;5073399;28;20231;-90
2022/04/09 12:05:20;;;;;;;3.38;3.05;;;8.70;99.90;;;;;;5073471;28;20216;-90
2022/04/09 12:07:49;;;;;;;2.38;2.20;;;8.60;99.90;;;;;;5073281;28;20221;-89
2022/04/09 12:10:26;;;;;;;3.08;2.70;;;8.60;99.90;;;;;;5072874;28;20284;-90
2022/04/09 12:12:59;;;;;;;2.53;2.33;;;8.60;99.90;;;;;;5073059;28;20266;-89
2022/04/09 12:15:31;;;;;;;3.08;2.25;;;8.60;99.90;;;;;;5073222;28;20217;-89
2022/04/09 12:18:00;;;;;;;2.60;2.40;;;8.60;99.90;;;;;;5072809;28;20255;-90
2022/04/09 12:20:30;;;;;;;2.70;2.47;;;8.70;99.90;;;;;;5073103;28;20200;-90
2022/04/09 12:23:00;;;;;;;2.33;2.10;;;8.70;99.90;;;;;;5072534;28;20221;-89
2022/04/09 12:25:42;;;;;;;6.13;2.72;;;8.90;99.90;;;;;;5073158;28;20292;-90
2022/04/09 12:28:22;;;;;;;2.05;1.95;;;9.00;99.90;;;;;;5072759;28;20225;-89
2022/04/09 12:30:51;;;;;;;2.25;2.10;;;9.40;99.90;;;;;;5072791;28;20211;-89
2022/04/09 12:33:22;;;;;;;2.60;2.40;;;9.50;99.90;;;;;;5072861;28;20225;-90
2022/04/09 12:35:53;;;;;;;2.30;2.10;;;9.60;99.90;;;;;;5073031;28;20206;-90
2022/04/09 12:38:31;;;;;;;3.58;2.55;;;9.70;99.90;;;;;;5072516;28;20320;-90
2022/04/09 12:41:04;;;;;;;2.13;2.03;;;9.80;99.90;;;;;;5072550;28;20251;-90
2022/04/09 12:43:34;;;;;;;1.88;1.77;;;9.60;99.90;;;;;;5072375;28;20286;-90
2022/04/09 12:46:07;;;;;;;2.47;2.33;;;9.50;99.90;;;;;;5072870;28;20200;-90
2022/04/09 12:48:40;;;;;;;2.28;1.90;;;9.50;99.90;;;;;;5072647;28;20230;-90
2022/04/09 12:51:08;;;;;;;2.05;1.92;;;9.40;99.90;;;;;;5072712;28;20200;-89
2022/04/09 12:53:37;;;;;;;2.28;2.08;;;9.50;99.90;;;;;;5073310;28;20256;-89
2022/04/09 12:56:08;;;;;;;3.58;2.58;;;9.50;99.90;;;;;;5074045;28;20209;-89
2022/04/09 12:58:36;;;;;;;1.70;1.60;;;9.60;99.90;;;;;;5072767;28;20306;-89
2022/04/09 13:01:06;;;;;;;2.42;2.17;;;9.60;99.90;;;;;;5072299;28;20290;-90
2022/04/09 13:03:35;;;;;;;2.28;2.08;;;9.70;99.90;;;;;;5072348;28;20235;-90
2022/04/09 13:06:05;;;;;;;2.03;1.92;;;9.70;99.90;;;;;;5072168;28;20201;-90
2022/04/09 13:08:33;;;;;;;2.25;2.10;;;9.70;99.90;;;;;;5072450;28;20201;-89
2022/04/09 13:11:04;;;;;;;2.50;2.00;;;9.60;99.90;;;;;;5072195;28;20231;-90